sensor_id;sensor_type;location;lat;lon;timestamp;P1;durP1;ratioP1;P2;durP2;ratioP2
29730;SDS011;16639;51.488;0.152;2022-11-13T00:03:48;36.42;;;22.63;;
29730;SDS011;16639;51.488;0.152;2022-11-13T00:06:17;37.28;;;21.20;;
29730;SDS011;16639;51.488;0.152;2022-11-13T00:08:45;37.63;;;21.08;;
29730;SDS011;16639;51.488;0.152;2022-11-13T00:11:17;37.75;;;20.42;;
29730;SDS011;16639;51.488;0.152;2022-11-13T00:13:46;36.45;;;20.98;;
29730;SDS011;16639;51.488;0.152;2022-11-13T00:16:18;34.33;;;20.35;;
29730;SDS011;16639;51.488;0.152;2022-11-13T00:18:47;33.38;;;19.42;;
29730;SDS011;16639;51.488;0.152;2022-11-13T00:21:19;37.75;;;20.60;;
29730;SDS011;16639;51.488;0.152;2022-11-13T00:23:48;36.95;;;21.92;;
29730;SDS011;16639;51.488;0.152;2022-11-13T00:26:17;38.13;;;23.40;;
29730;SDS011;16639;51.488;0.152;2022-11-13T00:28:46;42.55;;;22.63;;
29730;SDS011;16639;51.488;0.152;2022-11-13T00:31:17;36.47;;;21.05;;
29730;SDS011;16639;51.488;0.152;2022-11-13T00:33:44;37.22;;;22.35;;
29730;SDS011;16639;51.488;0.152;2022-11-13T00:36:32;43.08;;;23.40;;
29730;SDS011;16639;51.488;0.152;2022-11-13T00:38:59;46.53;;;24.23;;
29730;SDS011;16639;51.488;0.152;2022-11-13T00:41:26;39.85;;;22.13;;
29730;SDS011;16639;51.488;0.152;2022-11-13T00:43:54;45.15;;;23.38;;
29730;SDS011;16639;51.488;0.152;2022-11-13T00:46:21;42.38;;;23.92;;
29730;SDS011;16639;51.488;0.152;2022-11-13T00:48:48;41.45;;;23.67;;
29730;SDS011;16639;51.488;0.152;2022-11-13T00:51:24;40.70;;;23.38;;
29730;SDS011;16639;51.488;0.152;2022-11-13T00:53:54;39.42;;;21.60;;
29730;SDS011;16639;51.488;0.152;2022-11-13T00:56:22;42.97;;;23.63;;
29730;SDS011;16639;51.488;0.152;2022-11-13T00:58:49;33.17;;;20.33;;
29730;SDS011;16639;51.488;0.152;2022-11-13T01:01:18;40.15;;;22.30;;
29730;SDS011;16639;51.488;0.152;2022-11-13T01:03:46;41.83;;;23.05;;
29730;SDS011;16639;51.488;0.152;2022-11-13T01:06:15;47.13;;;25.10;;
29730;SDS011;16639;51.488;0.152;2022-11-13T01:08:46;48.83;;;24.63;;
29730;SDS011;16639;51.488;0.152;2022-11-13T01:11:18;42.83;;;24.73;;
29730;SDS011;16639;51.488;0.152;2022-11-13T01:13:47;42.55;;;22.92;;
29730;SDS011;16639;51.488;0.152;2022-11-13T01:16:17;35.55;;;21.52;;
29730;SDS011;16639;51.488;0.152;2022-11-13T01:18:46;42.08;;;22.15;;
29730;SDS011;16639;51.488;0.152;2022-11-13T01:21:15;40.83;;;23.00;;
29730;SDS011;16639;51.488;0.152;2022-11-13T01:23:45;36.35;;;20.50;;
29730;SDS011;16639;51.488;0.152;2022-11-13T01:26:13;41.65;;;22.55;;
29730;SDS011;16639;51.488;0.152;2022-11-13T01:28:41;43.97;;;23.55;;
29730;SDS011;16639;51.488;0.152;2022-11-13T01:31:11;45.80;;;21.25;;
29730;SDS011;16639;51.488;0.152;2022-11-13T01:33:41;36.65;;;21.98;;
29730;SDS011;16639;51.488;0.152;2022-11-13T01:36:11;41.40;;;22.33;;
29730;SDS011;16639;51.488;0.152;2022-11-13T01:38:42;35.58;;;20.02;;
29730;SDS011;16639;51.488;0.152;2022-11-13T01:41:20;35.75;;;20.27;;
29730;SDS011;16639;51.488;0.152;2022-11-13T01:43:50;40.50;;;21.13;;
29730;SDS011;16639;51.488;0.152;2022-11-13T01:54:14;33.65;;;19.77;;
29730;SDS011;16639;51.488;0.152;2022-11-13T01:56:46;35.05;;;20.27;;
29730;SDS011;16639;51.488;0.152;2022-11-13T01:59:18;35.42;;;20.13;;
29730;SDS011;16639;51.488;0.152;2022-11-13T02:01:48;35.75;;;19.08;;
29730;SDS011;16639;51.488;0.152;2022-11-13T02:04:16;31.92;;;17.42;;
29730;SDS011;16639;51.488;0.152;2022-11-13T02:09:17;34.28;;;19.40;;
29730;SDS011;16639;51.488;0.152;2022-11-13T02:11:49;35.75;;;20.10;;
29730;SDS011;16639;51.488;0.152;2022-11-13T02:14:17;36.55;;;21.50;;
29730;SDS011;16639;51.488;0.152;2022-11-13T02:16:46;35.92;;;20.20;;
29730;SDS011;16639;51.488;0.152;2022-11-13T02:19:30;33.10;;;19.60;;
29730;SDS011;16639;51.488;0.152;2022-11-13T02:22:20;35.47;;;20.20;;
29730;SDS011;16639;51.488;0.152;2022-11-13T02:24:55;41.47;;;22.10;;
29730;SDS011;16639;51.488;0.152;2022-11-13T02:27:36;34.17;;;18.45;;
29730;SDS011;16639;51.488;0.152;2022-11-13T02:32:55;38.67;;;19.23;;
29730;SDS011;16639;51.488;0.152;2022-11-13T02:35:30;41.92;;;21.00;;
29730;SDS011;16639;51.488;0.152;2022-11-13T02:40:29;37.00;;;19.92;;
29730;SDS011;16639;51.488;0.152;2022-11-13T02:42:58;31.35;;;18.60;;
29730;SDS011;16639;51.488;0.152;2022-11-13T02:45:25;36.05;;;18.45;;
29730;SDS011;16639;51.488;0.152;2022-11-13T02:47:53;38.35;;;19.05;;
29730;SDS011;16639;51.488;0.152;2022-11-13T02:50:20;33.35;;;18.95;;
29730;SDS011;16639;51.488;0.152;2022-11-13T02:52:47;29.00;;;18.77;;
29730;SDS011;16639;51.488;0.152;2022-11-13T02:55:15;38.20;;;20.08;;
29730;SDS011;16639;51.488;0.152;2022-11-13T02:57:42;33.42;;;18.40;;
29730;SDS011;16639;51.488;0.152;2022-11-13T03:00:10;33.13;;;19.15;;
29730;SDS011;16639;51.488;0.152;2022-11-13T03:02:40;34.60;;;18.88;;
29730;SDS011;16639;51.488;0.152;2022-11-13T03:05:08;35.15;;;17.92;;
29730;SDS011;16639;51.488;0.152;2022-11-13T03:07:40;36.75;;;18.95;;
29730;SDS011;16639;51.488;0.152;2022-11-13T03:10:08;36.17;;;19.10;;
29730;SDS011;16639;51.488;0.152;2022-11-13T03:12:37;29.98;;;18.92;;
29730;SDS011;16639;51.488;0.152;2022-11-13T03:15:05;36.03;;;19.98;;
29730;SDS011;16639;51.488;0.152;2022-11-13T03:17:33;34.92;;;19.05;;
29730;SDS011;16639;51.488;0.152;2022-11-13T03:20:02;33.25;;;19.45;;
29730;SDS011;16639;51.488;0.152;2022-11-13T03:22:30;35.67;;;19.45;;
29730;SDS011;16639;51.488;0.152;2022-11-13T03:24:57;38.28;;;21.10;;
29730;SDS011;16639;51.488;0.152;2022-11-13T03:27:24;36.67;;;20.85;;
29730;SDS011;16639;51.488;0.152;2022-11-13T03:29:52;33.70;;;19.13;;
29730;SDS011;16639;51.488;0.152;2022-11-13T03:32:19;37.30;;;19.27;;
29730;SDS011;16639;51.488;0.152;2022-11-13T03:34:46;33.22;;;18.98;;
29730;SDS011;16639;51.488;0.152;2022-11-13T03:37:14;32.78;;;19.27;;
29730;SDS011;16639;51.488;0.152;2022-11-13T03:39:41;36.95;;;21.52;;
29730;SDS011;16639;51.488;0.152;2022-11-13T03:42:09;35.42;;;18.83;;
29730;SDS011;16639;51.488;0.152;2022-11-13T03:44:36;33.10;;;19.27;;
29730;SDS011;16639;51.488;0.152;2022-11-13T03:47:03;36.13;;;20.63;;
29730;SDS011;16639;51.488;0.152;2022-11-13T03:49:31;39.70;;;22.80;;
29730;SDS011;16639;51.488;0.152;2022-11-13T03:51:58;34.65;;;19.55;;
29730;SDS011;16639;51.488;0.152;2022-11-13T03:54:25;40.53;;;20.75;;
29730;SDS011;16639;51.488;0.152;2022-11-13T03:56:53;33.28;;;19.60;;
29730;SDS011;16639;51.488;0.152;2022-11-13T03:59:20;36.28;;;19.90;;
29730;SDS011;16639;51.488;0.152;2022-11-13T04:01:47;38.22;;;19.33;;
29730;SDS011;16639;51.488;0.152;2022-11-13T04:04:15;39.42;;;21.25;;
29730;SDS011;16639;51.488;0.152;2022-11-13T04:06:42;43.75;;;22.08;;
29730;SDS011;16639;51.488;0.152;2022-11-13T04:09:10;37.60;;;20.35;;
29730;SDS011;16639;51.488;0.152;2022-11-13T04:11:37;33.83;;;18.55;;
29730;SDS011;16639;51.488;0.152;2022-11-13T04:14:05;29.23;;;18.17;;
29730;SDS011;16639;51.488;0.152;2022-11-13T04:16:32;36.63;;;19.73;;
29730;SDS011;16639;51.488;0.152;2022-11-13T04:18:59;35.90;;;20.27;;
29730;SDS011;16639;51.488;0.152;2022-11-13T04:21:27;46.25;;;23.67;;
29730;SDS011;16639;51.488;0.152;2022-11-13T04:23:54;41.63;;;21.50;;
29730;SDS011;16639;51.488;0.152;2022-11-13T04:26:21;47.78;;;23.95;;
29730;SDS011;16639;51.488;0.152;2022-11-13T04:28:49;47.38;;;23.52;;
29730;SDS011;16639;51.488;0.152;2022-11-13T04:31:16;39.28;;;21.60;;
29730;SDS011;16639;51.488;0.152;2022-11-13T04:33:43;46.17;;;24.00;;
29730;SDS011;16639;51.488;0.152;2022-11-13T04:36:10;46.95;;;21.75;;
29730;SDS011;16639;51.488;0.152;2022-11-13T04:38:38;43.70;;;22.80;;
29730;SDS011;16639;51.488;0.152;2022-11-13T04:41:05;39.60;;;21.60;;
29730;SDS011;16639;51.488;0.152;2022-11-13T04:43:51;36.13;;;19.98;;
29730;SDS011;16639;51.488;0.152;2022-11-13T04:46:19;35.78;;;20.45;;
29730;SDS011;16639;51.488;0.152;2022-11-13T04:48:46;38.75;;;21.23;;
29730;SDS011;16639;51.488;0.152;2022-11-13T04:51:13;39.22;;;21.98;;
29730;SDS011;16639;51.488;0.152;2022-11-13T04:53:41;33.00;;;18.25;;
29730;SDS011;16639;51.488;0.152;2022-11-13T04:56:08;43.25;;;21.13;;
29730;SDS011;16639;51.488;0.152;2022-11-13T04:58:36;36.80;;;21.17;;
29730;SDS011;16639;51.488;0.152;2022-11-13T05:01:03;30.48;;;17.20;;
29730;SDS011;16639;51.488;0.152;2022-11-13T05:03:32;38.22;;;19.88;;
29730;SDS011;16639;51.488;0.152;2022-11-13T05:06:07;34.28;;;18.58;;
29730;SDS011;16639;51.488;0.152;2022-11-13T05:08:35;35.78;;;19.67;;
29730;SDS011;16639;51.488;0.152;2022-11-13T05:11:03;32.63;;;18.60;;
29730;SDS011;16639;51.488;0.152;2022-11-13T05:13:33;30.40;;;17.73;;
29730;SDS011;16639;51.488;0.152;2022-11-13T05:16:03;32.53;;;18.77;;
29730;SDS011;16639;51.488;0.152;2022-11-13T05:18:33;35.85;;;19.40;;
29730;SDS011;16639;51.488;0.152;2022-11-13T05:21:02;31.33;;;18.38;;
29730;SDS011;16639;51.488;0.152;2022-11-13T05:23:31;34.17;;;17.60;;
29730;SDS011;16639;51.488;0.152;2022-11-13T05:28:30;28.17;;;16.38;;
29730;SDS011;16639;51.488;0.152;2022-11-13T05:31:11;28.52;;;17.15;;
29730;SDS011;16639;51.488;0.152;2022-11-13T05:33:41;31.02;;;17.67;;
29730;SDS011;16639;51.488;0.152;2022-11-13T05:36:10;31.15;;;16.70;;
29730;SDS011;16639;51.488;0.152;2022-11-13T05:38:39;26.00;;;15.93;;
29730;SDS011;16639;51.488;0.152;2022-11-13T05:41:08;31.13;;;17.20;;
29730;SDS011;16639;51.488;0.152;2022-11-13T05:43:38;27.02;;;15.82;;
29730;SDS011;16639;51.488;0.152;2022-11-13T05:46:07;25.58;;;15.63;;
29730;SDS011;16639;51.488;0.152;2022-11-13T05:48:45;27.05;;;16.42;;
29730;SDS011;16639;51.488;0.152;2022-11-13T05:51:15;25.83;;;15.70;;
29730;SDS011;16639;51.488;0.152;2022-11-13T05:53:44;28.90;;;16.65;;
29730;SDS011;16639;51.488;0.152;2022-11-13T05:56:16;25.85;;;17.05;;
29730;SDS011;16639;51.488;0.152;2022-11-13T05:58:45;28.90;;;16.05;;
29730;SDS011;16639;51.488;0.152;2022-11-13T06:03:48;30.50;;;16.08;;
29730;SDS011;16639;51.488;0.152;2022-11-13T06:06:19;29.60;;;15.65;;
29730;SDS011;16639;51.488;0.152;2022-11-13T06:08:48;25.98;;;16.58;;
29730;SDS011;16639;51.488;0.152;2022-11-13T06:11:17;29.15;;;15.32;;
29730;SDS011;16639;51.488;0.152;2022-11-13T06:13:46;27.35;;;17.52;;
29730;SDS011;16639;51.488;0.152;2022-11-13T06:16:15;25.85;;;16.17;;
29730;SDS011;16639;51.488;0.152;2022-11-13T06:18:46;26.45;;;15.82;;
29730;SDS011;16639;51.488;0.152;2022-11-13T06:21:15;25.15;;;16.30;;
29730;SDS011;16639;51.488;0.152;2022-11-13T06:23:44;30.58;;;17.92;;
29730;SDS011;16639;51.488;0.152;2022-11-13T06:26:17;29.98;;;16.15;;
29730;SDS011;16639;51.488;0.152;2022-11-13T06:28:49;29.77;;;15.48;;
29730;SDS011;16639;51.488;0.152;2022-11-13T06:31:20;28.17;;;17.00;;
29730;SDS011;16639;51.488;0.152;2022-11-13T06:33:50;26.48;;;16.63;;
29730;SDS011;16639;51.488;0.152;2022-11-13T06:36:19;26.02;;;15.70;;
29730;SDS011;16639;51.488;0.152;2022-11-13T06:38:51;29.60;;;16.90;;
29730;SDS011;16639;51.488;0.152;2022-11-13T06:41:19;30.83;;;16.85;;
29730;SDS011;16639;51.488;0.152;2022-11-13T06:43:58;26.15;;;15.95;;
29730;SDS011;16639;51.488;0.152;2022-11-13T06:46:29;29.10;;;15.88;;
29730;SDS011;16639;51.488;0.152;2022-11-13T06:48:57;29.13;;;17.25;;
29730;SDS011;16639;51.488;0.152;2022-11-13T06:51:25;27.13;;;16.45;;
29730;SDS011;16639;51.488;0.152;2022-11-13T06:53:54;27.83;;;17.17;;
29730;SDS011;16639;51.488;0.152;2022-11-13T06:56:22;29.48;;;18.13;;
29730;SDS011;16639;51.488;0.152;2022-11-13T06:58:50;32.03;;;19.95;;
29730;SDS011;16639;51.488;0.152;2022-11-13T07:01:20;33.33;;;19.52;;
29730;SDS011;16639;51.488;0.152;2022-11-13T07:03:48;36.08;;;18.63;;
29730;SDS011;16639;51.488;0.152;2022-11-13T07:06:18;40.78;;;21.83;;
29730;SDS011;16639;51.488;0.152;2022-11-13T07:08:47;36.15;;;20.60;;
29730;SDS011;16639;51.488;0.152;2022-11-13T07:11:19;35.42;;;20.77;;
29730;SDS011;16639;51.488;0.152;2022-11-13T07:13:48;39.58;;;20.95;;
29730;SDS011;16639;51.488;0.152;2022-11-13T07:16:16;39.45;;;22.25;;
29730;SDS011;16639;51.488;0.152;2022-11-13T07:18:51;40.08;;;21.48;;
29730;SDS011;16639;51.488;0.152;2022-11-13T07:21:19;38.35;;;20.70;;
29730;SDS011;16639;51.488;0.152;2022-11-13T07:23:47;33.63;;;19.08;;
29730;SDS011;16639;51.488;0.152;2022-11-13T07:26:15;36.78;;;19.98;;
29730;SDS011;16639;51.488;0.152;2022-11-13T07:28:43;33.45;;;19.42;;
29730;SDS011;16639;51.488;0.152;2022-11-13T07:31:11;38.92;;;19.10;;
29730;SDS011;16639;51.488;0.152;2022-11-13T07:33:40;29.17;;;16.90;;
29730;SDS011;16639;51.488;0.152;2022-11-13T07:36:07;42.08;;;17.98;;
29730;SDS011;16639;51.488;0.152;2022-11-13T07:38:35;30.60;;;16.90;;
29730;SDS011;16639;51.488;0.152;2022-11-13T07:41:03;33.70;;;17.40;;
29730;SDS011;16639;51.488;0.152;2022-11-13T07:43:31;34.15;;;15.98;;
29730;SDS011;16639;51.488;0.152;2022-11-13T07:45:58;28.63;;;15.32;;
29730;SDS011;16639;51.488;0.152;2022-11-13T07:48:27;31.48;;;16.92;;
29730;SDS011;16639;51.488;0.152;2022-11-13T07:50:58;31.30;;;15.98;;
29730;SDS011;16639;51.488;0.152;2022-11-13T07:53:26;27.67;;;15.68;;
29730;SDS011;16639;51.488;0.152;2022-11-13T07:55:54;28.00;;;15.63;;
29730;SDS011;16639;51.488;0.152;2022-11-13T07:58:21;28.85;;;14.00;;
29730;SDS011;16639;51.488;0.152;2022-11-13T08:00:49;30.77;;;14.05;;
29730;SDS011;16639;51.488;0.152;2022-11-13T08:03:16;27.80;;;15.20;;
29730;SDS011;16639;51.488;0.152;2022-11-13T08:05:44;36.63;;;16.05;;
29730;SDS011;16639;51.488;0.152;2022-11-13T08:08:12;24.73;;;13.63;;
29730;SDS011;16639;51.488;0.152;2022-11-13T08:10:40;21.08;;;12.75;;
29730;SDS011;16639;51.488;0.152;2022-11-13T08:13:08;21.45;;;13.00;;
29730;SDS011;16639;51.488;0.152;2022-11-13T08:15:36;22.15;;;13.82;;
29730;SDS011;16639;51.488;0.152;2022-11-13T08:18:04;20.98;;;14.15;;
29730;SDS011;16639;51.488;0.152;2022-11-13T08:20:31;27.77;;;16.20;;
29730;SDS011;16639;51.488;0.152;2022-11-13T08:23:00;25.25;;;15.18;;
29730;SDS011;16639;51.488;0.152;2022-11-13T08:25:30;26.67;;;13.25;;
29730;SDS011;16639;51.488;0.152;2022-11-13T08:27:58;16.60;;;11.20;;
29730;SDS011;16639;51.488;0.152;2022-11-13T08:30:26;18.02;;;11.70;;
29730;SDS011;16639;51.488;0.152;2022-11-13T08:32:54;20.17;;;12.68;;
29730;SDS011;16639;51.488;0.152;2022-11-13T08:35:21;15.82;;;10.70;;
29730;SDS011;16639;51.488;0.152;2022-11-13T08:38:04;22.25;;;11.48;;
29730;SDS011;16639;51.488;0.152;2022-11-13T08:40:34;14.73;;;9.55;;
29730;SDS011;16639;51.488;0.152;2022-11-13T08:43:02;15.15;;;9.13;;
29730;SDS011;16639;51.488;0.152;2022-11-13T08:45:30;17.45;;;7.50;;
29730;SDS011;16639;51.488;0.152;2022-11-13T08:47:58;15.80;;;8.07;;
29730;SDS011;16639;51.488;0.152;2022-11-13T08:50:27;14.38;;;8.38;;
29730;SDS011;16639;51.488;0.152;2022-11-13T08:52:55;11.07;;;7.32;;
29730;SDS011;16639;51.488;0.152;2022-11-13T08:55:25;14.50;;;8.00;;
29730;SDS011;16639;51.488;0.152;2022-11-13T08:57:53;12.65;;;8.38;;
29730;SDS011;16639;51.488;0.152;2022-11-13T09:00:23;13.90;;;7.47;;
29730;SDS011;16639;51.488;0.152;2022-11-13T09:02:54;11.48;;;8.38;;
29730;SDS011;16639;51.488;0.152;2022-11-13T09:05:22;13.15;;;8.32;;
29730;SDS011;16639;51.488;0.152;2022-11-13T09:07:50;12.43;;;8.77;;
29730;SDS011;16639;51.488;0.152;2022-11-13T09:10:22;9.95;;;7.60;;
29730;SDS011;16639;51.488;0.152;2022-11-13T09:13:00;12.60;;;8.00;;
29730;SDS011;16639;51.488;0.152;2022-11-13T09:15:29;15.88;;;8.85;;
29730;SDS011;16639;51.488;0.152;2022-11-13T09:17:58;28.77;;;13.10;;
29730;SDS011;16639;51.488;0.152;2022-11-13T09:20:28;14.73;;;9.80;;
29730;SDS011;16639;51.488;0.152;2022-11-13T09:23:00;16.08;;;9.90;;
29730;SDS011;16639;51.488;0.152;2022-11-13T09:25:29;19.15;;;10.73;;
29730;SDS011;16639;51.488;0.152;2022-11-13T09:28:03;23.30;;;10.27;;
29730;SDS011;16639;51.488;0.152;2022-11-13T09:30:31;15.55;;;10.32;;
29730;SDS011;16639;51.488;0.152;2022-11-13T09:32:59;16.35;;;10.40;;
29730;SDS011;16639;51.488;0.152;2022-11-13T09:35:27;18.58;;;10.30;;
29730;SDS011;16639;51.488;0.152;2022-11-13T09:38:03;16.77;;;10.27;;
29730;SDS011;16639;51.488;0.152;2022-11-13T09:45:46;23.70;;;12.50;;
29730;SDS011;16639;51.488;0.152;2022-11-13T09:48:26;20.38;;;14.02;;
29730;SDS011;16639;51.488;0.152;2022-11-13T09:51:05;26.13;;;13.63;;
29730;SDS011;16639;51.488;0.152;2022-11-13T09:53:39;20.00;;;13.30;;
29730;SDS011;16639;51.488;0.152;2022-11-13T09:56:15;19.92;;;13.10;;
29730;SDS011;16639;51.488;0.152;2022-11-13T09:59:18;24.23;;;14.20;;
29730;SDS011;16639;51.488;0.152;2022-11-13T10:10:17;21.88;;;14.05;;
29730;SDS011;16639;51.488;0.152;2022-11-13T10:13:01;23.58;;;14.38;;
29730;SDS011;16639;51.488;0.152;2022-11-13T10:15:31;24.88;;;15.82;;
29730;SDS011;16639;51.488;0.152;2022-11-13T10:18:10;31.35;;;16.13;;
29730;SDS011;16639;51.488;0.152;2022-11-13T10:20:49;29.08;;;17.00;;
29730;SDS011;16639;51.488;0.152;2022-11-13T10:23:20;27.20;;;16.02;;
29730;SDS011;16639;51.488;0.152;2022-11-13T10:26:06;34.63;;;18.77;;
29730;SDS011;16639;51.488;0.152;2022-11-13T10:28:40;34.90;;;18.60;;
29730;SDS011;16639;51.488;0.152;2022-11-13T10:31:17;34.97;;;18.17;;
29730;SDS011;16639;51.488;0.152;2022-11-13T10:33:44;29.80;;;18.50;;
29730;SDS011;16639;51.488;0.152;2022-11-13T10:39:04;25.75;;;17.55;;
29730;SDS011;16639;51.488;0.152;2022-11-13T10:41:43;36.03;;;20.20;;
29730;SDS011;16639;51.488;0.152;2022-11-13T10:46:43;30.77;;;19.02;;
29730;SDS011;16639;51.488;0.152;2022-11-13T10:49:12;36.78;;;20.92;;
29730;SDS011;16639;51.488;0.152;2022-11-13T10:51:43;32.42;;;20.00;;
29730;SDS011;16639;51.488;0.152;2022-11-13T10:59:24;38.05;;;22.13;;
29730;SDS011;16639;51.488;0.152;2022-11-13T11:01:53;37.17;;;23.08;;
29730;SDS011;16639;51.488;0.152;2022-11-13T11:04:21;36.10;;;22.92;;
29730;SDS011;16639;51.488;0.152;2022-11-13T11:06:53;42.05;;;23.02;;
29730;SDS011;16639;51.488;0.152;2022-11-13T11:09:41;38.53;;;22.52;;
29730;SDS011;16639;51.488;0.152;2022-11-13T11:12:11;38.05;;;20.45;;
29730;SDS011;16639;51.488;0.152;2022-11-13T11:23:17;40.20;;;21.10;;
29730;SDS011;16639;51.488;0.152;2022-11-13T11:29:07;36.00;;;20.50;;
29730;SDS011;16639;51.488;0.152;2022-11-13T11:37:12;39.60;;;23.90;;
29730;SDS011;16639;51.488;0.152;2022-11-13T11:47:49;40.75;;;21.92;;
29730;SDS011;16639;51.488;0.152;2022-11-13T11:50:17;34.47;;;21.35;;
29730;SDS011;16639;51.488;0.152;2022-11-13T11:53:12;35.08;;;19.13;;
29730;SDS011;16639;51.488;0.152;2022-11-13T12:01:54;31.17;;;19.95;;
29730;SDS011;16639;51.488;0.152;2022-11-13T12:04:18;32.97;;;20.67;;
29730;SDS011;16639;51.488;0.152;2022-11-13T12:07:16;32.88;;;21.55;;
29730;SDS011;16639;51.488;0.152;2022-11-13T12:10:06;29.65;;;19.40;;
29730;SDS011;16639;51.488;0.152;2022-11-13T12:12:55;30.13;;;19.52;;
29730;SDS011;16639;51.488;0.152;2022-11-13T12:18:46;29.23;;;19.67;;
29730;SDS011;16639;51.488;0.152;2022-11-13T12:27:16;32.65;;;20.70;;
29730;SDS011;16639;51.488;0.152;2022-11-13T12:30:08;34.58;;;22.05;;
29730;SDS011;16639;51.488;0.152;2022-11-13T12:35:52;30.98;;;20.75;;
29730;SDS011;16639;51.488;0.152;2022-11-13T12:41:41;32.70;;;20.75;;
29730;SDS011;16639;51.488;0.152;2022-11-13T12:44:26;31.92;;;19.85;;
29730;SDS011;16639;51.488;0.152;2022-11-13T12:46:55;35.83;;;22.35;;
29730;SDS011;16639;51.488;0.152;2022-11-13T12:49:32;28.83;;;19.08;;
29730;SDS011;16639;51.488;0.152;2022-11-13T12:52:02;33.22;;;21.30;;
29730;SDS011;16639;51.488;0.152;2022-11-13T12:54:42;37.85;;;23.10;;
29730;SDS011;16639;51.488;0.152;2022-11-13T12:59:41;33.08;;;21.60;;
29730;SDS011;16639;51.488;0.152;2022-11-13T13:02:30;43.00;;;24.45;;
29730;SDS011;16639;51.488;0.152;2022-11-13T13:10:56;42.55;;;25.15;;
29730;SDS011;16639;51.488;0.152;2022-11-13T13:13:41;37.97;;;25.25;;
29730;SDS011;16639;51.488;0.152;2022-11-13T13:16:24;56.17;;;29.73;;
29730;SDS011;16639;51.488;0.152;2022-11-13T13:19:04;45.97;;;27.60;;
29730;SDS011;16639;51.488;0.152;2022-11-13T13:21:54;45.58;;;27.90;;
29730;SDS011;16639;51.488;0.152;2022-11-13T13:24:29;43.25;;;27.27;;
29730;SDS011;16639;51.488;0.152;2022-11-13T13:27:14;45.88;;;26.67;;
29730;SDS011;16639;51.488;0.152;2022-11-13T13:29:51;41.45;;;25.88;;
29730;SDS011;16639;51.488;0.152;2022-11-13T13:32:22;37.97;;;24.58;;
29730;SDS011;16639;51.488;0.152;2022-11-13T13:35:10;47.28;;;27.30;;
29730;SDS011;16639;51.488;0.152;2022-11-13T13:37:46;51.00;;;29.48;;
29730;SDS011;16639;51.488;0.152;2022-11-13T13:48:48;46.58;;;26.88;;
29730;SDS011;16639;51.488;0.152;2022-11-13T13:54:17;49.35;;;28.38;;
29730;SDS011;16639;51.488;0.152;2022-11-13T13:56:48;49.17;;;27.42;;
29730;SDS011;16639;51.488;0.152;2022-11-13T13:59:17;49.20;;;28.92;;
29730;SDS011;16639;51.488;0.152;2022-11-13T14:01:53;46.28;;;27.85;;
29730;SDS011;16639;51.488;0.152;2022-11-13T14:04:25;49.17;;;29.05;;
29730;SDS011;16639;51.488;0.152;2022-11-13T14:07:00;53.60;;;29.33;;
29730;SDS011;16639;51.488;0.152;2022-11-13T14:09:29;50.28;;;30.13;;
29730;SDS011;16639;51.488;0.152;2022-11-13T14:12:00;48.60;;;30.55;;
29730;SDS011;16639;51.488;0.152;2022-11-13T14:14:37;46.58;;;29.88;;
29730;SDS011;16639;51.488;0.152;2022-11-13T14:17:05;57.58;;;32.13;;
29730;SDS011;16639;51.488;0.152;2022-11-13T14:19:35;49.60;;;28.63;;
29730;SDS011;16639;51.488;0.152;2022-11-13T14:22:03;55.35;;;29.98;;
29730;SDS011;16639;51.488;0.152;2022-11-13T14:24:35;50.63;;;32.83;;
29730;SDS011;16639;51.488;0.152;2022-11-13T14:27:17;49.17;;;30.17;;
29730;SDS011;16639;51.488;0.152;2022-11-13T14:29:49;44.67;;;29.73;;
29730;SDS011;16639;51.488;0.152;2022-11-13T14:32:20;38.85;;;26.67;;
29730;SDS011;16639;51.488;0.152;2022-11-13T14:34:51;43.00;;;28.15;;
29730;SDS011;16639;51.488;0.152;2022-11-13T14:39:54;41.05;;;26.30;;
29730;SDS011;16639;51.488;0.152;2022-11-13T14:50:31;46.80;;;26.65;;
29730;SDS011;16639;51.488;0.152;2022-11-13T14:53:01;46.88;;;27.10;;
29730;SDS011;16639;51.488;0.152;2022-11-13T14:55:48;50.80;;;28.77;;
29730;SDS011;16639;51.488;0.152;2022-11-13T14:58:27;43.88;;;23.83;;
29730;SDS011;16639;51.488;0.152;2022-11-13T15:01:13;50.65;;;26.00;;
29730;SDS011;16639;51.488;0.152;2022-11-13T15:03:45;46.58;;;26.10;;
29730;SDS011;16639;51.488;0.152;2022-11-13T15:08:42;52.10;;;26.88;;
29730;SDS011;16639;51.488;0.152;2022-11-13T15:11:13;46.10;;;26.17;;
29730;SDS011;16639;51.488;0.152;2022-11-13T15:13:42;51.60;;;28.13;;
29730;SDS011;16639;51.488;0.152;2022-11-13T15:16:12;54.10;;;28.27;;
29730;SDS011;16639;51.488;0.152;2022-11-13T15:18:51;51.33;;;28.42;;
29730;SDS011;16639;51.488;0.152;2022-11-13T15:21:30;53.28;;;28.60;;
29730;SDS011;16639;51.488;0.152;2022-11-13T15:23:57;55.13;;;28.73;;
29730;SDS011;16639;51.488;0.152;2022-11-13T15:26:26;51.63;;;27.67;;
29730;SDS011;16639;51.488;0.152;2022-11-13T15:28:54;50.38;;;27.60;;
29730;SDS011;16639;51.488;0.152;2022-11-13T15:31:28;50.50;;;28.33;;
29730;SDS011;16639;51.488;0.152;2022-11-13T15:34:03;55.05;;;30.88;;
29730;SDS011;16639;51.488;0.152;2022-11-13T15:36:31;54.88;;;29.58;;
29730;SDS011;16639;51.488;0.152;2022-11-13T15:38:58;48.28;;;29.02;;
29730;SDS011;16639;51.488;0.152;2022-11-13T15:41:32;53.92;;;28.65;;
29730;SDS011;16639;51.488;0.152;2022-11-13T15:44:01;55.25;;;30.17;;
29730;SDS011;16639;51.488;0.152;2022-11-13T15:46:32;49.03;;;29.02;;
29730;SDS011;16639;51.488;0.152;2022-11-13T15:48:59;52.10;;;29.98;;
29730;SDS011;16639;51.488;0.152;2022-11-13T15:54:40;54.38;;;30.50;;
29730;SDS011;16639;51.488;0.152;2022-11-13T15:57:06;49.95;;;29.48;;
29730;SDS011;16639;51.488;0.152;2022-11-13T15:59:42;54.42;;;30.63;;
29730;SDS011;16639;51.488;0.152;2022-11-13T16:02:09;48.60;;;28.90;;
29730;SDS011;16639;51.488;0.152;2022-11-13T16:04:37;46.10;;;27.67;;
29730;SDS011;16639;51.488;0.152;2022-11-13T16:07:24;53.53;;;28.80;;
29730;SDS011;16639;51.488;0.152;2022-11-13T16:09:53;47.95;;;29.27;;
29730;SDS011;16639;51.488;0.152;2022-11-13T16:12:20;46.17;;;29.10;;
29730;SDS011;16639;51.488;0.152;2022-11-13T16:14:48;48.67;;;27.83;;
29730;SDS011;16639;51.488;0.152;2022-11-13T16:17:16;44.53;;;26.48;;
29730;SDS011;16639;51.488;0.152;2022-11-13T16:19:49;43.47;;;26.73;;
29730;SDS011;16639;51.488;0.152;2022-11-13T16:22:21;45.22;;;27.77;;
29730;SDS011;16639;51.488;0.152;2022-11-13T16:24:50;49.72;;;29.25;;
29730;SDS011;16639;51.488;0.152;2022-11-13T16:27:26;50.33;;;29.95;;
29730;SDS011;16639;51.488;0.152;2022-11-13T16:29:57;51.00;;;31.67;;
29730;SDS011;16639;51.488;0.152;2022-11-13T16:32:35;49.88;;;31.13;;
29730;SDS011;16639;51.488;0.152;2022-11-13T16:35:03;47.80;;;27.05;;
29730;SDS011;16639;51.488;0.152;2022-11-13T16:37:30;48.47;;;29.75;;
29730;SDS011;16639;51.488;0.152;2022-11-13T16:39:57;53.95;;;30.17;;
29730;SDS011;16639;51.488;0.152;2022-11-13T16:42:25;50.60;;;29.90;;
29730;SDS011;16639;51.488;0.152;2022-11-13T16:44:56;55.70;;;29.88;;
29730;SDS011;16639;51.488;0.152;2022-11-13T16:47:24;57.08;;;32.00;;
29730;SDS011;16639;51.488;0.152;2022-11-13T16:49:52;52.95;;;30.75;;
29730;SDS011;16639;51.488;0.152;2022-11-13T16:52:19;58.53;;;30.33;;
29730;SDS011;16639;51.488;0.152;2022-11-13T16:54:46;52.38;;;30.63;;